createdAt,value
2023-05-05T00:01:17.142Z,99028.19
2023-05-05T00:06:19.541Z,99034.94
2023-05-05T00:11:21.918Z,99071.78
2023-05-05T00:16:24.233Z,99016.09
2023-05-05T00:21:27.741Z,98996.72
2023-05-05T00:26:30.083Z,99020.06
2023-05-05T00:31:32.560Z,99009.97
2023-05-05T00:36:34.993Z,99071.38
2023-05-05T00:41:37.368Z,99047.63
2023-05-05T00:46:40.718Z,99063.28
2023-05-05T00:51:43.137Z,99069.84
2023-05-05T00:56:46.012Z,99069.41
2023-05-05T01:01:48.188Z,99090.88
2023-05-05T01:07:25.936Z,99054.69
2023-05-05T01:12:41.552Z,99068.91
2023-05-05T01:17:56.187Z,99075.25
2023-05-05T01:23:06.053Z,99078.09
2023-05-05T01:28:48.320Z,99090.28
2023-05-05T01:33:59.071Z,99090.94
2023-05-05T01:39:03.509Z,99121.03
2023-05-05T01:44:08.437Z,99076.09
2023-05-05T01:49:12.677Z,99070.00
2023-05-05T01:54:16.767Z,99127.94
2023-05-05T01:59:21.063Z,99098.75
2023-05-05T02:04:24.571Z,99125.00
2023-05-05T02:09:29.514Z,99143.44
2023-05-05T02:14:34.367Z,99138.03
2023-05-05T02:19:42.340Z,99158.34
2023-05-05T02:24:45.356Z,99119.91
2023-05-05T02:29:52.028Z,99126.59
2023-05-05T02:34:56.000Z,99152.47
2023-05-05T02:40:06.310Z,99179.97
2023-05-05T02:45:22.848Z,99159.00
2023-05-05T02:50:26.867Z,99137.69
2023-05-05T02:55:55.248Z,99157.28
2023-05-05T03:01:12.017Z,99171.56
2023-05-05T03:06:18.396Z,99171.09
2023-05-05T03:11:33.010Z,99186.00
2023-05-05T03:16:39.030Z,99183.13
2023-05-05T03:21:42.836Z,99150.16
2023-05-05T03:26:47.500Z,99200.78
2023-05-05T03:31:50.902Z,99171.69
2023-05-05T03:36:53.534Z,99186.66
2023-05-05T03:41:55.980Z,99150.22
2023-05-05T03:46:59.961Z,99135.25
2023-05-05T03:52:04.794Z,99147.69
2023-05-05T03:57:07.636Z,99150.38
2023-05-05T04:02:09.856Z,99166.13
2023-05-05T04:07:12.183Z,99110.09
2023-05-05T04:12:14.575Z,99124.69
2023-05-05T04:17:17.058Z,99137.19
2023-05-05T04:22:19.717Z,99159.72
2023-05-05T04:27:22.077Z,99090.28
2023-05-05T04:32:24.803Z,99165.88
2023-05-05T04:37:27.528Z,99156.25
2023-05-05T04:42:30.545Z,99131.56
2023-05-05T04:47:38.220Z,99163.19
2023-05-05T04:52:41.143Z,99095.19
2023-05-05T04:57:43.682Z,99154.84
2023-05-05T05:02:46.107Z,99172.94
2023-05-05T05:07:48.265Z,99119.91
2023-05-05T05:12:50.682Z,99135.69
2023-05-05T05:17:53.066Z,99149.44
2023-05-05T05:22:55.727Z,99169.28
2023-05-05T05:28:08.753Z,99165.84
2023-05-05T05:33:16.020Z,99204.13
2023-05-05T05:38:19.810Z,99202.84
2023-05-05T05:43:23.550Z,99197.63
2023-05-05T05:48:28.604Z,99189.56
2023-05-05T05:53:32.108Z,99208.50
2023-05-05T05:58:34.472Z,99200.59
2023-05-05T06:03:37.000Z,99231.84
2023-05-05T06:08:39.444Z,99221.19
2023-05-05T06:13:42.210Z,99247.44
2023-05-05T06:18:44.810Z,99218.53
2023-05-05T06:23:47.956Z,99229.13
2023-05-05T06:28:50.700Z,99232.13
2023-05-05T06:33:52.941Z,99242.53
2023-05-05T06:38:55.253Z,99294.91
2023-05-05T06:43:57.503Z,99244.84
2023-05-05T06:48:59.882Z,99309.31
2023-05-05T06:54:02.177Z,99292.13
2023-05-05T06:59:04.451Z,99261.91
2023-05-05T07:04:07.179Z,99261.00
2023-05-05T07:09:09.689Z,99275.81
2023-05-05T07:14:11.917Z,99261.81
2023-05-05T07:19:14.027Z,99292.56
2023-05-05T07:24:16.377Z,99303.06
2023-05-05T07:29:18.541Z,99268.47
2023-05-05T07:34:20.741Z,99276.59
2023-05-05T07:39:23.058Z,99271.59
2023-05-05T07:44:25.726Z,99327.81
2023-05-05T07:49:28.090Z,99235.09
2023-05-05T07:54:30.460Z,99257.63
2023-05-05T07:59:32.752Z,99295.88
2023-05-05T08:04:35.062Z,99347.28
2023-05-05T08:09:38.564Z,99262.78
2023-05-05T08:14:42.574Z,99247.81
2023-05-05T08:19:44.863Z,99257.38
2023-05-05T08:24:47.085Z,99270.84
2023-05-05T08:29:49.364Z,99243.34
2023-05-05T08:34:51.583Z,99307.22
2023-05-05T08:39:53.888Z,99248.00
2023-05-05T08:44:58.344Z,99242.56
2023-05-05T08:50:01.977Z,99255.84
2023-05-05T08:55:26.908Z,99232.75
2023-05-05T09:00:29.268Z,99281.53
2023-05-05T09:05:31.656Z,99230.88
2023-05-05T09:10:34.523Z,99244.59
2023-05-05T09:15:39.048Z,99256.66
2023-05-05T09:20:42.168Z,99253.22
2023-05-05T09:25:47.504Z,99271.84
2023-05-05T09:30:49.682Z,99267.72
2023-05-05T09:35:54.721Z,99281.88
2023-05-05T09:40:56.982Z,99214.91
2023-05-05T09:46:08.906Z,99241.72
2023-05-05T09:51:11.451Z,99248.72
2023-05-05T09:56:13.844Z,99225.91
2023-05-05T10:01:24.140Z,99221.91
2023-05-05T10:06:48.415Z,99223.09
2023-05-05T10:11:51.561Z,99242.94
2023-05-05T10:16:55.998Z,99196.56
2023-05-05T10:22:04.500Z,99246.84
2023-05-05T10:27:22.684Z,99270.75
2023-05-05T10:32:54.403Z,99207.31
2023-05-05T10:38:00.830Z,99267.81
2023-05-05T10:43:03.309Z,99218.22
2023-05-05T10:48:12.036Z,99223.25
2023-05-05T10:53:24.270Z,99270.53
2023-05-05T10:58:55.524Z,99193.06
2023-05-05T11:04:23.614Z,99221.13
2023-05-05T11:09:29.810Z,99105.16
2023-05-05T11:14:32.117Z,99216.03
2023-05-05T11:19:43.788Z,99206.84
2023-05-05T11:24:47.354Z,99120.84
2023-05-05T11:30:16.916Z,99156.94
2023-05-05T11:35:19.488Z,99054.97
2023-05-05T11:40:28.704Z,99085.16
2023-05-05T11:45:31.220Z,99094.84
2023-05-05T11:50:33.932Z,99150.06
2023-05-05T11:55:36.422Z,99068.63
2023-05-05T12:00:38.768Z,99101.84
2023-05-05T12:05:41.896Z,99071.41
2023-05-05T12:10:44.320Z,99033.94
2023-05-05T12:15:47.179Z,99056.84
2023-05-05T12:20:49.707Z,99084.22
2023-05-05T12:25:52.025Z,99047.97
2023-05-05T12:31:00.494Z,99061.06
2023-05-05T12:36:02.976Z,99059.88
2023-05-05T12:41:05.522Z,98993.81
2023-05-05T12:46:14.901Z,99017.81
2023-05-05T12:51:20.713Z,99010.03
2023-05-05T12:56:35.939Z,99041.19
2023-05-05T13:01:53.600Z,98985.09
2023-05-05T13:07:14.742Z,98935.31
2023-05-05T13:12:21.403Z,98993.19
2023-05-05T13:17:25.131Z,98927.31
2023-05-05T13:22:27.389Z,98925.91
2023-05-05T13:27:29.736Z,98926.16
2023-05-05T13:32:32.035Z,98907.69
2023-05-05T13:37:34.219Z,98914.66
2023-05-05T13:42:36.509Z,98903.38
2023-05-05T13:47:39.115Z,98835.59
2023-05-05T13:52:41.936Z,98852.66
2023-05-05T13:57:44.227Z,98830.13
2023-05-05T14:02:47.940Z,98844.34
2023-05-05T14:07:50.306Z,98877.53
2023-05-05T14:12:52.723Z,98845.44
2023-05-05T14:17:56.283Z,98848.41
2023-05-05T14:22:58.572Z,98913.38
2023-05-05T14:28:00.717Z,98904.66
2023-05-05T14:33:03.065Z,98868.19
2023-05-05T14:38:05.701Z,98930.75
2023-05-05T14:43:08.044Z,98977.63
2023-05-05T14:48:11.002Z,98856.31
2023-05-05T14:53:13.252Z,98912.56
2023-05-05T14:58:15.682Z,98972.22
2023-05-05T15:03:18.117Z,98955.88
2023-05-05T15:08:20.486Z,98895.63
2023-05-05T15:13:22.635Z,98988.28
2023-05-05T15:18:25.030Z,98956.34
2023-05-05T15:23:27.258Z,98917.09
2023-05-05T15:28:29.362Z,98958.88
2023-05-05T15:33:31.565Z,98944.25
2023-05-05T15:38:33.790Z,98876.06
2023-05-05T15:43:36.205Z,98962.25
2023-05-05T15:48:38.504Z,98936.00
2023-05-05T15:53:40.762Z,98940.88
2023-05-05T15:58:43.053Z,98936.97
2023-05-05T16:03:45.327Z,98971.09
2023-05-05T16:08:48.926Z,98975.97
2023-05-05T16:13:51.204Z,99012.47
2023-05-05T16:18:53.440Z,98953.72
2023-05-05T16:23:56.960Z,99012.38
2023-05-05T16:28:59.388Z,99001.72
2023-05-05T16:34:01.760Z,99041.13
2023-05-05T16:39:04.239Z,99008.88
2023-05-05T16:44:07.087Z,99023.63
2023-05-05T16:49:09.352Z,99041.66
2023-05-05T16:54:11.457Z,99032.50
2023-05-05T16:59:15.696Z,99022.00
2023-05-05T17:04:17.941Z,99015.50
2023-05-05T17:09:24.870Z,99024.06
2023-05-05T17:14:27.473Z,98993.16
2023-05-05T17:19:29.664Z,98977.81
2023-05-05T17:24:31.781Z,98977.91
2023-05-05T17:29:36.939Z,98955.88
2023-05-05T17:34:39.288Z,99001.09
2023-05-05T17:39:41.570Z,98964.78
2023-05-05T17:44:44.996Z,98996.63
2023-05-05T17:49:52.620Z,99030.91
2023-05-05T17:54:54.815Z,99063.28
2023-05-05T17:59:57.051Z,99032.88
2023-05-05T18:04:59.312Z,99034.97
2023-05-05T18:10:01.602Z,99038.91
2023-05-05T18:15:05.574Z,99081.66
2023-05-05T18:20:08.583Z,99051.97
2023-05-05T18:25:11.048Z,99038.81
2023-05-05T18:30:13.755Z,99062.00
2023-05-05T18:35:16.057Z,98993.06
2023-05-05T18:40:18.611Z,98958.88
2023-05-05T18:45:20.911Z,98967.16
2023-05-05T18:50:23.241Z,98964.50
2023-05-05T18:55:25.624Z,99009.22
2023-05-05T19:00:27.874Z,98993.84
2023-05-05T19:05:30.203Z,98976.72
2023-05-05T19:10:32.452Z,99007.97
2023-05-05T19:15:34.758Z,99011.34
2023-05-05T19:20:38.640Z,99032.22
2023-05-05T19:25:41.074Z,99057.63
2023-05-05T19:30:43.452Z,98979.22
2023-05-05T19:35:45.917Z,99052.16
2023-05-05T19:40:48.075Z,99069.13
2023-05-05T19:45:50.359Z,99084.59
2023-05-05T19:50:53.214Z,99005.63
2023-05-05T19:55:55.690Z,99041.53
2023-05-05T20:00:58.003Z,99058.53
2023-05-05T20:06:00.161Z,99092.25
2023-05-05T20:11:02.387Z,99102.53
2023-05-05T20:16:06.146Z,99086.19
2023-05-05T20:21:08.609Z,99110.06
2023-05-05T20:26:11.505Z,99109.66
2023-05-05T20:31:15.562Z,99127.09
2023-05-05T20:36:18.650Z,99124.00
2023-05-05T20:41:20.887Z,99108.53
2023-05-05T20:46:23.156Z,99122.59
2023-05-05T20:51:29.349Z,99170.16
2023-05-05T20:56:31.604Z,99142.38
2023-05-05T21:01:34.574Z,99128.00
2023-05-05T21:06:36.863Z,99148.53
2023-05-05T21:11:39.065Z,99157.94
2023-05-05T21:16:41.360Z,99147.47
2023-05-05T21:21:43.758Z,99161.03
2023-05-05T21:26:46.193Z,99120.44
2023-05-05T21:31:48.456Z,99085.03
2023-05-05T21:36:51.479Z,99075.13
2023-05-05T21:41:53.615Z,99111.94
2023-05-05T21:46:56.272Z,99112.06
2023-05-05T21:51:58.576Z,99133.53
2023-05-05T21:57:01.648Z,99137.34
2023-05-05T22:02:03.947Z,99066.44
2023-05-05T22:07:06.498Z,99099.59
2023-05-05T22:12:08.766Z,99058.16
2023-05-05T22:17:11.629Z,99087.41
2023-05-05T22:22:13.948Z,99096.13
2023-05-05T22:27:16.161Z,99082.81
2023-05-05T22:32:18.335Z,99086.38
2023-05-05T22:37:20.868Z,99076.75
2023-05-05T22:42:23.120Z,99062.50
2023-05-05T22:47:25.647Z,99086.50
2023-05-05T22:52:29.098Z,99056.09
2023-05-05T22:57:31.497Z,99068.84
2023-05-05T23:02:33.752Z,99094.94
2023-05-05T23:07:36.022Z,99043.91
2023-05-05T23:12:38.456Z,99097.03
2023-05-05T23:17:40.684Z,99114.81
2023-05-05T23:22:42.867Z,99056.28
2023-05-05T23:27:45.216Z,99112.78
2023-05-05T23:32:47.612Z,99038.66
2023-05-05T23:37:50.267Z,99099.09
2023-05-05T23:42:52.391Z,99083.59
2023-05-05T23:47:55.116Z,99051.50
2023-05-05T23:52:57.471Z,99085.25
2023-05-05T23:57:59.773Z,99114.19
